Pagina principală
METAR-TAF:

METAR-TAF

Aeroporturi :

Port Harcourt, Nigeria

Latitudine: 04-51N, longitudine: 007-01E, elevație: 18 m

Observații meteo curente

Raportul a fost făcut în urmă cu 33 de minute, la 11:00 UTC
Vânt 5 kt de la Sud/Sud-vest
Temperatură 33°C
Umiditate 67%
Presiune 1012 hPa
Vizibilitate de 10 km sau mai mult
Nori fragmentați la o înălțime de 1300 picior

METAR: DNPO 211100Z 21005KT 9999 BKN013 33/26 Q1012 BECMG BKN013 FEW020CB

Ora: 12:33 (11:33 UTC)


TAF: lipsă

Observații și prognoze meteo pentru peste 4.000 de aeroporturi (rapoarte METAR și TAF).

Stațiile disponibile sunt reprezentate pe hartă prin puncte galbene și roșii.

Țineți indicatorul mouse-ului pe punctul dorit pentru a vedea denumirea stației.

Apoi, faceți clic pentru a vedea observațiile și prognozele meteorologice.

Pentru a schimba harta: Pentru mărire, faceți clic pe butoanele verzi cu cruce neagră; pentru micșorare, pe butonul verde cu o liniuță; pentru hărți învecinate, pe săgețile verzi.


METAR-TAF: